Time;durP1;ratioP1;P1;durP2;ratioP2;P2;SDS_P1;SDS_P2;PMS_P1;PMS_P2;Temp;Humidity;BMP_temperature;BMP_pressure;BME280_temperature;BME280_humidity;BME280_pressure;Samples;Min_cycle;Max_cycle;Signal;HPM_P1;HPM_P2
2022/05/05 00:01:21;;;;;;;;;2.00;2.00;;;;;18.86;44.76;102046.41;5051153;28;8802;-72
2022/05/05 00:03:47;;;;;;;;;0.00;0.00;;;;;18.86;44.30;102041.97;5050692;28;8802;-72
2022/05/05 00:06:12;;;;;;;;;1.00;1.00;;;;;18.86;44.41;102043.78;5050382;28;9568;-72
2022/05/05 00:08:37;;;;;;;;;0.67;0.67;;;;;18.86;44.69;102046.41;5050883;28;8798;-72
2022/05/05 00:16:30;;;;;;;;;2.00;1.00;;;;;18.83;44.89;102044.63;5050448;28;9524;-71
2022/05/05 00:18:55;;;;;;;;;1.00;1.00;;;;;18.82;44.77;102046.38;5049426;28;9696;-72
2022/05/05 00:21:21;;;;;;;;;1.00;1.00;;;;;18.82;44.90;102049.00;5050522;28;8820;-71
2022/05/05 00:23:46;;;;;;;;;0.25;0.25;;;;;18.83;44.64;102048.16;5050276;28;8796;-72
2022/05/05 00:26:11;;;;;;;;;1.00;1.00;;;;;18.82;44.85;102046.38;5049787;28;8806;-72
2022/05/05 00:28:36;;;;;;;;;1.25;1.00;;;;;18.81;44.98;102052.56;5050174;28;8809;-72
2022/05/05 00:31:02;;;;;;;;;1.00;0.50;;;;;18.79;44.68;102043.72;5050276;28;8851;-73
2022/05/05 00:33:27;;;;;;;;;1.00;1.00;;;;;18.81;44.87;102049.03;5049854;28;8801;-71
2022/05/05 00:35:52;;;;;;;;;0.50;0.50;;;;;18.81;45.04;102051.66;5050121;28;8786;-72
2022/05/05 00:38:18;;;;;;;;;1.00;1.00;;;;;18.80;44.92;102048.13;5050105;28;8841;-71
2022/05/05 00:40:43;;;;;;;;;2.00;1.00;;;;;18.79;44.93;102040.19;5049614;28;8809;-72
2022/05/05 00:43:09;;;;;;;;;0.75;0.75;;;;;18.79;44.87;102048.13;5050207;28;8794;-72
2022/05/05 00:45:35;;;;;;;;;0.50;0.50;;;;;18.77;45.15;102047.22;5050081;28;8841;-70
2022/05/05 00:48:07;;;;;;;;;2.00;0.75;;;;;18.78;45.01;102047.22;5049272;28;10112;-72
2022/05/05 00:50:35;;;;;;;;;0.50;0.50;;;;;18.78;45.02;102055.16;5049880;28;8801;-71
2022/05/05 00:53:01;;;;;;;;;1.00;0.00;;;;;18.76;45.14;102048.09;5049765;28;9498;-71
2022/05/05 00:55:26;;;;;;;;;0.00;0.00;;;;;18.76;45.06;102051.63;5046457;28;9530;-72
2022/05/05 00:57:52;;;;;;;;;1.50;1.50;;;;;18.76;45.02;102056.03;5049636;28;9378;-71
2022/05/05 01:00:17;;;;;;;;;2.00;1.00;;;;;18.75;44.98;102046.31;5049049;28;8774;-72
2022/05/05 01:02:43;;;;;;;;;0.00;0.00;;;;;18.76;45.29;102049.00;5049673;28;8798;-72
2022/05/05 01:05:08;;;;;;;;;1.00;1.00;;;;;18.76;45.23;102040.16;5049253;28;8928;-74
2022/05/05 01:07:34;;;;;;;;;1.00;0.00;;;;;18.75;45.32;102052.50;5049278;28;8777;-72
2022/05/05 01:10:00;;;;;;;;;1.67;1.00;;;;;18.75;45.27;102043.66;5049736;28;8818;-72
2022/05/05 01:12:29;;;;;;;;;1.00;1.00;;;;;18.74;45.45;102045.47;5049784;28;11491;-72
2022/05/05 01:14:55;;;;;;;;;0.50;0.50;;;;;18.77;45.31;102041.94;5048667;28;8810;-72
2022/05/05 01:17:22;;;;;;;;;1.50;0.75;;;;;18.75;45.29;102049.84;5049297;28;9535;-72
2022/05/05 01:19:47;;;;;;;;;0.00;0.00;;;;;18.74;45.32;102055.16;5049492;28;9583;-72
2022/05/05 01:22:15;;;;;;;;;1.00;1.00;;;;;18.73;45.23;102051.63;5049189;28;9365;-71
2022/05/05 01:30:08;;;;;;;;;0.25;0.25;;;;;18.74;45.37;102047.22;5048744;28;9382;-72
2022/05/05 01:32:34;;;;;;;;;1.00;1.00;;;;;18.73;45.34;102042.78;5049493;28;9639;-72
2022/05/05 01:35:00;;;;;;;;;0.33;0.33;;;;;18.73;45.43;102043.69;5049392;28;8774;-70
2022/05/05 01:37:26;;;;;;;;;1.00;0.00;;;;;18.72;45.30;102039.25;5048956;28;8918;-71
2022/05/05 01:39:51;;;;;;;;;0.00;0.00;;;;;18.71;45.44;102033.94;5049171;28;8798;-72
2022/05/05 01:42:16;;;;;;;;;1.00;1.00;;;;;18.72;45.22;102031.31;5049307;28;10564;-72
2022/05/05 01:44:41;;;;;;;;;0.33;0.33;;;;;18.72;45.43;102030.44;5048443;28;8835;-72
2022/05/05 01:47:07;;;;;;;;;0.00;0.00;;;;;18.71;45.27;102026.00;5049284;28;8817;-72
2022/05/05 01:49:32;;;;;;;;;0.00;0.00;;;;;18.71;45.68;102034.81;5048423;28;8894;-71
2022/05/05 01:51:58;;;;;;;;;1.00;1.00;;;;;18.71;45.43;102033.94;5048926;28;8782;-73
2022/05/05 01:54:23;;;;;;;;;1.00;1.00;;;;;18.68;45.18;102037.47;5049320;28;8786;-72
2022/05/05 01:56:49;;;;;;;;;1.00;1.00;;;;;18.70;45.50;102032.19;5048101;28;9373;-71
2022/05/05 01:59:14;;;;;;;;;1.00;1.00;;;;;18.70;45.52;102037.47;5049028;28;8824;-73
2022/05/05 02:01:39;;;;;;;;;1.00;1.00;;;;;18.69;45.27;102044.53;5049105;28;8801;-73
2022/05/05 02:04:04;;;;;;;;;1.00;1.00;;;;;18.68;45.33;102039.22;5048154;28;8806;-71
2022/05/05 02:06:32;;;;;;;;;0.00;0.00;;;;;18.67;45.57;102046.25;5049316;28;8798;-72
2022/05/05 02:08:58;;;;;;;;;1.00;1.00;;;;;18.67;45.43;102048.03;5049304;28;8806;-72
2022/05/05 02:11:25;;;;;;;;;0.00;0.00;;;;;18.67;45.81;102048.03;5048484;28;9495;-72
2022/05/05 02:13:50;;;;;;;;;1.00;1.00;;;;;18.66;45.46;102043.63;5048541;28;9330;-72
2022/05/05 02:16:15;;;;;;;;;0.33;0.33;;;;;18.66;45.71;102057.75;5051531;28;9532;-72
2022/05/05 02:18:41;;;;;;;;;0.00;0.00;;;;;18.67;45.94;102063.91;5052051;28;8809;-72
2022/05/05 02:21:06;;;;;;;;;0.33;0.33;;;;;18.67;45.74;102053.34;5052688;28;8802;-72
2022/05/05 02:23:31;;;;;;;;;0.00;0.00;;;;;18.66;45.43;102057.75;5052654;28;8785;-72
2022/05/05 02:25:57;;;;;;;;;1.00;0.00;;;;;18.64;45.63;102054.19;5051685;28;8790;-72
2022/05/05 02:28:23;;;;;;;;;1.00;1.00;;;;;18.65;45.42;102055.06;5052358;28;8797;-72
2022/05/05 02:30:48;;;;;;;;;0.33;0.33;;;;;18.64;45.72;102051.53;5052591;28;8805;-72
2022/05/05 02:33:13;;;;;;;;;1.00;1.00;;;;;18.64;45.92;102051.53;5051854;28;9549;-72
2022/05/05 02:35:39;;;;;;;;;2.00;1.00;;;;;18.64;45.72;102048.88;5052470;28;8794;-72
2022/05/05 02:40:48;;;;;;;;;1.00;1.00;;;;;18.63;45.43;102054.19;5051450;28;8770;-72
2022/05/05 02:43:14;;;;;;;;;0.00;0.00;;;;;18.63;45.98;102052.41;5052543;28;9282;-72
2022/05/05 02:45:40;;;;;;;;;0.00;0.00;;;;;18.64;45.55;102054.19;5052469;28;8940;-72
2022/05/05 02:48:08;;;;;;;;;0.33;0.33;;;;;18.63;45.70;102049.75;5051948;28;8862;-72
2022/05/05 02:50:36;;;;;;;;;2.00;1.00;;;;;18.63;45.99;102047.09;5052785;28;8823;-71
2022/05/05 02:54:46;;;;;;;;;0.67;0.00;;;;;18.61;46.00;102053.28;5051641;28;9272;-71
2022/05/05 02:55:48;;;;;;;;;0.00;0.00;;;;;18.62;45.76;102053.28;5052065;28;9313;-72
2022/05/05 02:58:13;;;;;;;;;1.00;1.00;;;;;18.62;45.63;102055.06;5052320;28;9191;-73
2022/05/05 03:00:38;;;;;;;;;1.00;1.00;;;;;18.60;45.68;102051.50;5051590;28;9272;-72
2022/05/05 03:03:04;;;;;;;;;0.00;0.00;;;;;18.60;46.00;102049.72;5051728;28;8978;-72
2022/05/05 03:05:29;;;;;;;;;0.67;0.67;;;;;18.60;46.15;102052.38;5052114;28;8813;-72
2022/05/05 03:07:58;;;;;;;;;0.00;0.00;;;;;18.60;45.83;102049.72;5050935;28;9508;-72
2022/05/05 03:10:23;;;;;;;;;0.00;0.00;;;;;18.58;45.95;102046.22;5051930;28;9669;-72
2022/05/05 03:12:48;;;;;;;;;1.00;0.00;;;;;18.58;45.95;102046.22;5051553;28;9478;-72
2022/05/05 03:15:16;;;;;;;;;1.67;0.67;;;;;18.58;45.99;102042.66;5051199;28;8774;-72
2022/05/05 03:17:41;;;;;;;;;1.00;1.00;;;;;18.60;45.78;102048.84;5051552;28;9581;-72
2022/05/05 03:20:07;;;;;;;;;2.00;1.00;;;;;18.59;45.98;102050.63;5051355;28;9263;-71
2022/05/05 03:22:33;;;;;;;;;1.00;1.00;;;;;18.58;45.56;102042.66;5050909;28;8782;-72
2022/05/05 03:24:58;;;;;;;;;1.00;0.00;;;;;18.57;45.88;102052.38;5051589;28;11511;-71
2022/05/05 03:27:23;;;;;;;;;0.00;0.00;;;;;18.59;46.14;102053.28;5051086;28;8810;-73
2022/05/05 03:29:48;;;;;;;;;0.00;0.00;;;;;18.57;46.06;102054.13;5050581;28;8916;-72
2022/05/05 03:32:15;;;;;;;;;0.67;0.67;;;;;18.56;45.69;102055.88;5051625;28;8778;-72
2022/05/05 03:34:40;;;;;;;;;0.00;0.00;;;;;18.56;45.94;102055.88;5051984;28;8867;-73
2022/05/05 03:37:08;;;;;;;;;1.00;1.00;;;;;18.56;46.36;102055.88;5050609;28;9238;-72
2022/05/05 03:39:34;;;;;;;;;0.00;0.00;;;;;18.55;45.97;102050.59;5051644;28;8790;-71
2022/05/05 03:41:59;;;;;;;;;0.00;0.00;;;;;18.55;45.92;102059.41;5050951;28;9145;-72
2022/05/05 03:44:27;;;;;;;;;1.00;1.00;;;;;18.56;45.74;102055.00;5050902;28;8821;-72
2022/05/05 03:46:52;;;;;;;;;1.00;1.00;;;;;18.56;46.32;102057.66;5051297;28;8832;-72
2022/05/05 03:49:18;;;;;;;;;1.00;1.00;;;;;18.52;46.04;102059.34;5050439;28;9189;-72
2022/05/05 03:51:44;;;;;;;;;0.67;0.67;;;;;18.55;45.83;102055.88;5050922;28;8789;-72
2022/05/05 03:54:10;;;;;;;;;0.00;0.00;;;;;18.54;46.15;102062.91;5051118;28;8804;-72
2022/05/05 03:56:35;;;;;;;;;0.00;0.00;;;;;18.55;46.10;102061.16;5050068;28;9310;-72
2022/05/05 03:59:01;;;;;;;;;1.00;1.00;;;;;18.52;46.07;102059.34;5050857;28;8790;-71
2022/05/05 04:01:27;;;;;;;;;1.00;1.00;;;;;18.54;46.22;102064.69;5050773;28;8805;-72
2022/05/05 04:03:55;;;;;;;;;2.00;2.00;;;;;18.54;46.12;102062.03;5049550;28;9265;-72
2022/05/05 04:06:20;;;;;;;;;1.00;0.00;;;;;18.52;45.66;102062.00;5050509;28;8892;-72
2022/05/05 04:08:45;;;;;;;;;2.00;1.00;;;;;18.53;45.99;102069.06;5050346;28;9403;-73
2022/05/05 04:11:14;;;;;;;;;0.00;0.00;;;;;18.53;46.25;102066.44;5050078;28;8801;-72
2022/05/05 04:13:42;;;;;;;;;0.00;0.00;;;;;18.51;46.27;102069.91;5050603;28;8967;-71
2022/05/05 04:16:08;;;;;;;;;1.00;1.00;;;;;18.51;46.00;102067.25;5050239;28;9229;-73
2022/05/05 04:18:35;;;;;;;;;1.00;1.00;;;;;18.52;46.19;102069.94;5049826;28;9275;-72
2022/05/05 04:21:00;;;;;;;;;1.00;1.00;;;;;18.50;46.12;102063.72;5050242;28;10591;-72
2022/05/05 04:23:25;;;;;;;;;0.00;0.00;;;;;18.49;46.05;102063.72;5050527;28;9928;-72
2022/05/05 04:25:51;;;;;;;;;1.67;1.67;;;;;18.51;46.17;102069.91;5049509;28;8817;-72
2022/05/05 04:28:16;;;;;;;;;2.00;0.67;;;;;18.51;46.16;102070.84;5050437;28;8805;-72
2022/05/05 04:30:42;;;;;;;;;0.00;0.00;;;;;18.51;46.41;102070.84;5050384;28;8771;-72
2022/05/05 04:33:08;;;;;;;;;1.00;1.00;;;;;18.50;46.47;102071.66;5049605;28;8794;-72
2022/05/05 04:35:36;;;;;;;;;0.67;0.67;;;;;18.50;46.09;102076.06;5050956;28;8804;-72
2022/05/05 04:38:02;;;;;;;;;1.00;0.00;;;;;18.50;46.27;102076.06;5050193;28;9161;-72
2022/05/05 04:40:27;;;;;;;;;2.00;1.00;;;;;18.51;46.41;102076.13;5050608;28;9179;-73
2022/05/05 04:42:52;;;;;;;;;1.00;1.00;;;;;18.50;46.33;102081.34;5050852;28;8808;-72
2022/05/05 04:45:17;;;;;;;;;1.00;1.00;;;;;18.50;46.26;102076.97;5050854;28;8778;-72
2022/05/05 04:47:43;;;;;;;;;1.00;1.00;;;;;18.51;46.15;102077.84;5050372;28;8952;-71
2022/05/05 04:50:09;;;;;;;;;1.00;1.00;;;;;18.50;46.32;102086.66;5050628;28;8868;-71
2022/05/05 04:52:37;;;;;;;;;1.00;1.00;;;;;18.49;46.23;102085.75;5049339;28;8798;-71
2022/05/05 04:55:05;;;;;;;;;1.00;1.00;;;;;18.50;46.22;102089.28;5049848;28;8786;-73
2022/05/05 04:57:30;;;;;;;;;1.00;1.00;;;;;18.50;46.24;102089.28;5049962;28;9488;-72
2022/05/05 04:59:56;;;;;;;;;1.33;1.33;;;;;18.49;46.23;102082.22;5049143;28;9392;-72
2022/05/05 05:02:21;;;;;;;;;0.00;0.00;;;;;18.48;46.17;102093.69;5049675;28;9557;-72
2022/05/05 05:04:47;;;;;;;;;1.00;0.00;;;;;18.49;46.54;102095.44;5049142;28;8805;-72
2022/05/05 05:07:12;;;;;;;;;1.00;1.00;;;;;18.47;46.15;102099.84;5048449;28;8900;-72
2022/05/05 05:09:37;;;;;;;;;1.00;1.00;;;;;18.48;46.35;102105.16;5050230;28;8801;-72
2022/05/05 05:12:03;;;;;;;;;1.00;1.00;;;;;18.48;46.45;102102.50;5049300;28;8864;-72
2022/05/05 05:14:28;;;;;;;;;1.00;1.00;;;;;18.47;46.62;102108.66;5049210;28;8810;-72
2022/05/05 05:16:53;;;;;;;;;0.00;0.00;;;;;18.49;46.35;102108.66;5049327;28;8857;-71
2022/05/05 05:19:19;;;;;;;;;0.33;0.33;;;;;18.49;46.13;102108.66;5049511;28;8806;-71
2022/05/05 05:21:46;;;;;;;;;1.00;1.00;;;;;18.51;46.16;102115.78;5048880;28;8813;-73
2022/05/05 05:24:12;;;;;;;;;1.00;1.00;;;;;18.54;46.35;102114.94;5049632;28;8782;-71
2022/05/05 05:26:37;;;;;;;;;0.00;0.00;;;;;18.56;46.34;102126.44;5049587;28;9265;-71
2022/05/05 05:29:05;;;;;;;;;1.00;0.67;;;;;18.56;46.02;102127.28;5048447;28;10019;-71
2022/05/05 05:31:30;;;;;;;;;1.00;1.00;;;;;18.60;46.16;102130.84;5049559;28;8982;-71
2022/05/05 05:33:55;;;;;;;;;2.00;1.00;;;;;18.61;46.27;102132.63;5049339;28;9209;-72
2022/05/05 05:36:21;;;;;;;;;1.00;1.00;;;;;18.61;46.02;102129.97;5049062;28;8762;-72
2022/05/05 05:38:46;;;;;;;;;1.33;1.33;;;;;18.61;46.49;102129.97;5049378;28;8781;-72
2022/05/05 05:41:11;;;;;;;;;2.33;1.00;;;;;18.61;46.01;102136.16;5049858;28;8831;-72
2022/05/05 05:43:37;;;;;;;;;1.00;1.00;;;;;18.61;46.44;102146.75;5048914;28;9509;-71
2022/05/05 05:46:02;;;;;;;;;1.00;1.00;;;;;18.63;45.98;102146.78;5049134;28;9189;-72
2022/05/05 05:48:28;;;;;;;;;0.00;0.00;;;;;18.62;46.11;102143.22;5049686;28;8794;-71
2022/05/05 05:50:53;;;;;;;;;1.00;1.00;;;;;18.61;45.99;102143.22;5052381;28;8798;-71
2022/05/05 05:53:18;;;;;;;;;1.00;1.00;;;;;18.62;46.08;102150.28;5053641;28;8802;-71
2022/05/05 05:55:44;;;;;;;;;2.00;1.00;;;;;18.63;46.26;102152.06;5052414;28;8818;-71
2022/05/05 05:58:09;;;;;;;;;2.00;1.00;;;;;18.63;46.05;102149.41;5053537;28;8885;-71
2022/05/05 06:00:35;;;;;;;;;1.00;1.00;;;;;18.64;46.10;102149.41;5053465;28;8817;-71
2022/05/05 06:05:47;;;;;;;;;0.00;0.00;;;;;18.67;46.38;102153.88;5052865;28;8766;-71
2022/05/05 06:08:12;;;;;;;;;0.67;0.67;;;;;18.68;46.31;102158.25;5053495;28;9387;-71
2022/05/05 06:10:43;;;;;;;;;0.00;0.00;;;;;18.67;45.97;102165.31;5052263;28;8786;-71
2022/05/05 06:13:11;;;;;;;;;1.00;1.00;;;;;18.69;46.22;102165.34;5053112;28;8822;-72
2022/05/05 06:15:36;;;;;;;;;2.00;1.00;;;;;18.69;46.17;102162.69;5052844;28;9286;-72
2022/05/05 06:18:02;;;;;;;;;1.75;1.00;;;;;18.69;45.83;102171.50;5052013;28;9350;-71
2022/05/05 06:20:27;;;;;;;;;1.33;1.33;;;;;18.69;46.17;102170.63;5052973;28;9552;-73
2022/05/05 06:22:54;;;;;;;;;0.33;0.33;;;;;18.69;46.23;102168.88;5052727;28;8797;-72
2022/05/05 06:25:23;;;;;;;;;1.00;1.00;;;;;18.70;46.03;102164.47;5052173;28;8781;-72
2022/05/05 06:27:49;;;;;;;;;1.00;1.00;;;;;18.72;46.09;102175.94;5052473;28;9267;-72
2022/05/05 06:30:14;;;;;;;;;1.00;1.00;;;;;18.71;46.47;102167.09;5052566;28;9249;-73
2022/05/05 06:32:40;;;;;;;;;1.00;1.00;;;;;18.72;46.28;102182.13;5051148;28;8821;-71
2022/05/05 06:35:06;;;;;;;;;2.00;1.00;;;;;18.75;46.05;102183.91;5052302;28;8820;-72
2022/05/05 06:37:31;;;;;;;;;1.00;1.00;;;;;18.75;46.18;102184.78;5052642;28;11475;-72
2022/05/05 06:39:57;;;;;;;;;0.33;0.33;;;;;18.76;45.91;102178.63;5052198;28;8778;-72
2022/05/05 06:42:22;;;;;;;;;1.00;1.00;;;;;18.77;45.98;102183.06;5053233;28;8807;-72
2022/05/05 06:44:48;;;;;;;;;1.00;1.00;;;;;18.77;46.89;102191.00;5052859;28;8786;-72
2022/05/05 06:47:13;;;;;;;;;1.00;1.00;;;;;18.78;46.23;102192.75;5052384;28;8789;-72
2022/05/05 06:49:38;;;;;;;;;1.00;1.00;;;;;18.79;45.96;102194.53;5053075;28;8963;-72
2022/05/05 06:52:04;;;;;;;;;0.33;0.33;;;;;18.78;46.18;102194.53;5052137;28;8785;-73
2022/05/05 06:54:30;;;;;;;;;0.00;0.00;;;;;18.80;46.03;102203.34;5052785;28;8840;-73
2022/05/05 06:56:55;;;;;;;;;2.75;1.75;;;;;18.80;46.11;102200.72;5052480;28;8848;-71
2022/05/05 06:59:21;;;;;;;;;0.00;0.00;;;;;18.81;46.40;102199.84;5051501;28;8770;-72
2022/05/05 07:01:52;;;;;;;;;2.33;1.00;;;;;18.79;46.44;102196.28;5051025;28;8916;-72
2022/05/05 07:07:11;;;;;;;;;1.25;1.00;;;;;18.81;47.26;102202.50;5049617;28;9368;-71
2022/05/05 07:12:23;;;;;;;;;0.00;0.00;;;;;18.82;46.44;102209.53;5052043;28;9308;-71
2022/05/05 07:14:49;;;;;;;;;1.33;1.33;;;;;18.83;46.27;102209.56;5049880;28;9242;-72
2022/05/05 07:17:17;;;;;;;;;1.00;1.00;;;;;18.86;46.44;102207.84;5050786;28;9327;-72
2022/05/05 07:19:43;;;;;;;;;1.00;1.00;;;;;18.79;47.11;102198.94;5052055;28;8803;-72
2022/05/05 07:22:08;;;;;;;;;0.75;0.75;;;;;18.83;46.34;102204.28;5050811;28;9461;-72
2022/05/05 07:24:34;;;;;;;;;1.00;1.00;;;;;18.83;46.54;102208.69;5050064;28;8853;-72
2022/05/05 07:27:01;;;;;;;;;1.00;1.00;;;;;18.85;46.89;102214.00;5051328;28;8944;-72
2022/05/05 07:29:26;;;;;;;;;1.00;1.00;;;;;18.85;46.61;102211.34;5051155;28;9578;-72
2022/05/05 07:31:51;;;;;;;;;1.00;1.00;;;;;18.87;46.59;102207.84;5051553;28;9399;-71
2022/05/05 07:34:18;;;;;;;;;1.00;1.00;;;;;18.87;46.30;102212.22;5050574;28;9575;-72
2022/05/05 07:36:44;;;;;;;;;0.00;0.00;;;;;18.90;46.73;102214.91;5050158;28;8833;-71
2022/05/05 07:39:10;;;;;;;;;1.00;1.00;;;;;18.89;46.26;102210.50;5051667;28;9257;-71
2022/05/05 07:41:36;;;;;;;;;1.00;1.00;;;;;18.91;46.49;102211.41;5050871;28;9610;-72
2022/05/05 07:44:01;;;;;;;;;1.00;1.00;;;;;18.93;46.32;102223.78;5051385;28;8881;-72
2022/05/05 07:46:27;;;;;;;;;1.00;1.00;;;;;18.92;47.00;102216.72;5049299;28;8840;-72
2022/05/05 07:48:54;;;;;;;;;0.00;0.00;;;;;18.93;47.24;102222.91;5049891;28;8944;-68
2022/05/05 07:51:19;;;;;;;;;3.00;2.00;;;;;19.04;51.47;102219.47;5051279;28;9475;-68
2022/05/05 07:54:34;;;;;;;;;4.00;1.75;;;;;19.09;55.55;102228.31;5051048;28;10117;-69
2022/05/05 07:56:32;;;;;;;;;2.25;2.25;;;;;19.20;57.30;102228.41;5050196;28;8868;-69
2022/05/05 07:58:58;;;;;;;;;3.00;2.00;;;;;19.22;55.69;102222.28;5050916;28;9412;-69
2022/05/05 08:01:23;;;;;;;;;3.00;2.00;;;;;19.31;57.27;102234.69;5050510;28;9510;-69
2022/05/05 08:03:48;;;;;;;;;2.00;2.00;;;;;19.35;56.70;102231.19;5049678;28;8912;-72
2022/05/05 08:06:14;;;;;;;;;2.25;2.25;;;;;19.43;57.41;102236.56;5050795;28;8793;-71
2022/05/05 08:08:39;;;;;;;;;4.75;3.50;;;;;19.50;58.75;102241.03;5051012;28;8794;-71
2022/05/05 08:11:05;;;;;;;;;4.50;2.75;;;;;19.56;60.76;102243.75;5049599;28;8908;-69
2022/05/05 08:13:32;;;;;;;;;8.00;3.00;;;;;19.56;60.64;102249.94;5050762;28;8804;-70
2022/05/05 08:15:57;;;;;;;;;4.00;3.00;;;;;19.61;61.63;102250.84;5049945;28;9465;-70
2022/05/05 08:18:23;;;;;;;;;4.25;3.00;;;;;19.62;60.51;102246.44;5049651;28;10087;-70
2022/05/05 08:20:48;;;;;;;;;4.25;3.75;;;;;19.59;63.30;102251.72;5050150;28;8859;-71
2022/05/05 08:23:14;;;;;;;;;5.75;4.75;;;;;19.58;62.75;102245.53;5050643;28;8959;-72
2022/05/05 08:28:29;;;;;;;;;5.25;5.25;;;;;19.59;64.45;102252.59;5050437;28;9612;-72
2022/05/05 08:30:58;;;;;;;;;8.00;4.00;;;;;19.58;63.19;102252.56;5049559;28;9487;-70
2022/05/05 08:33:27;;;;;;;;;5.25;5.25;;;;;19.58;62.71;102249.94;5050533;28;9636;-72
2022/05/05 08:35:53;;;;;;;;;9.25;7.00;;;;;19.58;61.52;102255.22;5049957;28;9641;-71
2022/05/05 08:38:18;;;;;;;;;7.00;5.25;;;;;19.57;61.63;102261.44;5049606;28;9699;-71
2022/05/05 08:40:44;;;;;;;;;6.50;5.00;;;;;19.56;62.32;102263.19;5049968;28;11556;-70
2022/05/05 08:43:12;;;;;;;;;4.00;4.00;;;;;19.53;61.77;102259.63;5050040;28;8806;-70
2022/05/05 08:45:38;;;;;;;;;6.25;6.00;;;;;19.51;61.53;102258.72;5049647;28;8778;-70
2022/05/05 08:48:12;;;;;;;;;6.50;5.50;;;;;19.51;62.36;102264.00;5049966;28;10285;-71
2022/05/05 08:50:39;;;;;;;;;6.00;5.25;;;;;19.51;61.64;102270.19;5050206;28;8841;-72
2022/05/05 08:53:06;;;;;;;;;4.00;4.00;;;;;19.50;61.07;102267.53;5048640;28;9626;-72
2022/05/05 08:55:32;;;;;;;;;6.00;6.00;;;;;19.50;61.06;102268.41;5049872;28;9546;-71
2022/05/05 08:58:00;;;;;;;;;5.25;4.25;;;;;19.52;61.04;102274.63;5049900;28;9566;-71
2022/05/05 09:00:27;;;;;;;;;5.25;3.50;;;;;19.53;60.38;102275.53;5049284;28;9510;-72
2022/05/05 09:02:56;;;;;;;;;4.50;4.50;;;;;19.56;60.42;102279.09;5049536;28;9573;-71
2022/05/05 09:05:43;;;;;;;;;4.00;4.00;;;;;19.52;59.90;102279.94;5049864;28;9723;-71
2022/05/05 09:08:32;;;;;;;;;4.50;4.25;;;;;19.53;60.03;102286.13;5049740;28;9582;-71
2022/05/05 09:11:01;;;;;;;;;5.50;4.00;;;;;19.53;59.69;102279.03;5039324;28;9779;-71
2022/05/05 09:13:36;;;;;;;;;5.25;5.25;;;;;19.56;59.50;102279.09;5048928;28;9720;-71
2022/05/05 09:16:03;;;;;;;;;5.00;4.00;;;;;19.55;59.21;102287.91;5049067;28;9689;-71
2022/05/05 09:18:31;;;;;;;;;2.00;0.00;;;;;19.56;59.31;102291.44;5049735;28;9637;-71
2022/05/05 09:20:58;;;;;;;;;6.00;5.75;;;;;19.58;59.51;102285.25;5048725;28;9574;-70
2022/05/05 09:23:32;;;;;;;;;4.50;4.50;;;;;19.59;58.87;102294.09;5049313;28;9706;-70
2022/05/05 09:25:59;;;;;;;;;4.75;4.50;;;;;19.56;59.21;102289.69;5049564;28;9593;-71
2022/05/05 09:28:36;;;;;;;;;8.00;6.25;;;;;19.59;59.14;102294.09;5048740;28;9679;-71
2022/05/05 09:31:09;;;;;;;;;5.00;5.00;;;;;19.58;59.01;102294.97;5049349;28;9657;-72
2022/05/05 09:33:34;;;;;;;;;6.00;5.00;;;;;19.62;59.24;102294.13;5049697;28;10465;-72
2022/05/05 09:36:04;;;;;;;;;7.50;5.50;;;;;19.62;58.90;102294.13;5048737;28;9434;-71
2022/05/05 09:39:04;;;;;;;;;8.00;5.75;;;;;19.63;58.91;102296.78;5049604;28;8820;-71
2022/05/05 09:41:30;;;;;;;;;13.00;10.00;;;;;19.65;58.60;102300.31;5048512;28;9469;-72
2022/05/05 09:44:21;;;;;;;;;5.75;5.00;;;;;19.65;58.29;102300.31;5049141;28;9641;-71
2022/05/05 09:46:52;;;;;;;;;6.50;5.25;;;;;19.66;58.35;102303.88;5035508;28;9675;-71
2022/05/05 09:49:27;;;;;;;;;5.25;5.25;;;;;19.66;58.29;102303.88;5049010;28;10435;-71
2022/05/05 09:57:52;;;;;;;;;6.00;6.00;;;;;19.68;57.56;102312.72;5048996;28;9731;-71
2022/05/05 10:05:43;;;;;;;;;6.50;5.50;;;;;19.72;56.91;102311.88;5049082;28;9714;-71
2022/05/05 10:08:09;;;;;;;;;9.75;7.00;;;;;19.71;56.78;102320.69;5049025;28;9488;-70
2022/05/05 10:10:35;;;;;;;;;10.25;9.00;;;;;19.68;57.10;102312.72;5048568;28;9636;-71
2022/05/05 10:13:01;;;;;;;;;6.25;6.25;;;;;19.70;57.01;102318.91;5048925;28;9719;-72
2022/05/05 10:15:27;;;;;;;;;6.50;6.50;;;;;19.70;56.74;102314.50;5048943;28;9751;-71
2022/05/05 10:17:54;;;;;;;;;5.00;5.00;;;;;19.69;56.75;102315.38;5048497;28;8821;-72
2022/05/05 10:20:22;;;;;;;;;10.50;8.00;;;;;19.65;56.62;102315.34;5047622;28;9655;-71
2022/05/05 10:22:56;;;;;;;;;9.50;9.50;;;;;19.69;56.86;102320.69;5048782;28;9898;-72
2022/05/05 10:25:28;;;;;;;;;7.50;7.50;;;;;19.69;56.37;102317.13;5048626;28;10453;-72
2022/05/05 10:27:56;;;;;;;;;9.75;9.75;;;;;19.67;56.71;102316.25;5047974;28;9750;-71
2022/05/05 10:30:34;;;;;;;;;9.75;7.00;;;;;19.63;56.32;102306.50;5048847;28;9726;-71
2022/05/05 10:33:01;;;;;;;;;6.00;6.00;;;;;19.66;55.94;102309.16;5049217;28;9753;-71
2022/05/05 10:35:26;;;;;;;;;7.75;6.00;;;;;19.68;56.17;102313.59;5049717;28;9963;-71
2022/05/05 10:37:52;;;;;;;;;9.00;9.00;;;;;19.68;55.59;102316.25;5050398;28;9716;-71
2022/05/05 10:40:17;;;;;;;;;8.50;8.50;;;;;19.68;55.63;102310.94;5053163;28;9561;-70
2022/05/05 10:42:45;;;;;;;;;5.25;5.25;;;;;19.68;55.34;102312.72;5053188;28;9529;-72
2022/05/05 10:45:14;;;;;;;;;6.00;6.00;;;;;19.69;55.23;102319.78;5052511;28;8805;-70
2022/05/05 10:47:55;;;;;;;;;10.25;10.25;;;;;19.69;55.00;102320.69;5051662;28;9654;-70
2022/05/05 10:50:53;;;;;;;;;10.25;8.25;;;;;19.69;55.21;102312.72;5052390;28;9839;-69
2022/05/05 10:53:38;;;;;;;;;11.25;10.00;;;;;19.70;55.04;102317.16;5052362;28;9721;-70
2022/05/05 10:56:05;;;;;;;;;9.50;9.00;;;;;19.70;54.89;102316.28;5052505;28;9920;-70
2022/05/05 10:58:58;;;;;;;;;12.25;11.00;;;;;19.72;54.79;102323.34;5049893;28;9902;-70
2022/05/05 11:01:25;;;;;;;;;14.00;13.75;;;;;19.72;54.67;102328.66;5052439;28;10118;-69
2022/05/05 11:04:13;;;;;;;;;17.50;15.75;;;;;19.72;54.45;102322.50;5051973;28;10144;-70
2022/05/05 11:06:39;;;;;;;;;15.50;12.75;;;;;19.74;54.37;102321.63;5052142;28;10236;-70
2022/05/05 11:09:05;;;;;;;;;21.00;17.25;;;;;19.77;53.90;102331.34;5051174;28;10133;-70
2022/05/05 11:11:41;;;;;;;;;19.00;19.00;;;;;19.77;53.79;102323.38;5052583;28;8856;-69
2022/05/05 11:22:57;;;;;;;;;9.75;9.75;;;;;19.93;53.01;102322.63;5051554;28;9987;-70
2022/05/05 11:25:23;;;;;;;;;12.00;11.25;;;;;19.94;52.85;102321.75;5052230;28;9874;-70
2022/05/05 11:27:55;;;;;;;;;12.00;11.25;;;;;20.00;53.13;102321.78;5051865;28;10042;-70
2022/05/05 11:30:20;;;;;;;;;12.00;11.00;;;;;20.04;53.48;102326.22;5052715;28;8789;-70
2022/05/05 11:32:45;;;;;;;;;16.00;14.00;;;;;20.03;53.00;102326.22;5052428;28;9818;-70
2022/05/05 11:35:11;;;;;;;;;18.75;17.50;;;;;20.02;52.61;102327.97;5051696;28;8794;-71
2022/05/05 11:37:42;;;;;;;;;10.75;9.75;;;;;20.07;52.83;102322.69;5052260;28;8825;-70
2022/05/05 11:40:08;;;;;;;;;12.00;12.00;;;;;20.09;52.82;102329.81;5052442;28;8856;-71
2022/05/05 11:44:14;;;;;;;;;14.00;14.00;;;;;20.10;52.35;102330.66;5051502;28;10045;-71
2022/05/05 11:45:19;;;;;;;;;12.50;12.50;;;;;20.13;52.69;102330.72;5051883;28;9965;-70
2022/05/05 11:47:44;;;;;;;;;13.25;10.00;;;;;20.15;52.59;102336.91;5050867;28;9832;-71
2022/05/05 11:50:10;;;;;;;;;11.75;11.00;;;;;20.15;52.67;102332.50;5051971;28;8786;-71
2022/05/05 11:52:35;;;;;;;;;13.50;12.25;;;;;20.16;52.55;102331.63;5051957;28;8793;-71
2022/05/05 11:55:04;;;;;;;;;11.75;11.00;;;;;20.17;52.46;102327.22;5050716;28;10135;-71
2022/05/05 11:57:38;;;;;;;;;12.75;9.75;;;;;20.17;52.57;102325.41;5052118;28;9576;-71
2022/05/05 12:02:49;;;;;;;;;10.75;10.75;;;;;20.20;52.31;102329.88;5050442;28;9865;-71
2022/05/05 12:05:15;;;;;;;;;12.75;11.75;;;;;20.22;52.16;102333.41;5051817;28;9876;-71
2022/05/05 12:07:44;;;;;;;;;13.00;11.00;;;;;20.21;52.38;102324.56;5051849;28;8816;-71
2022/05/05 12:10:12;;;;;;;;;15.50;15.00;;;;;20.24;51.98;102329.00;5051064;28;8812;-71
2022/05/05 12:12:43;;;;;;;;;11.00;10.75;;;;;20.23;52.26;102324.56;5051360;28;9980;-71
2022/05/05 12:15:10;;;;;;;;;14.25;14.25;;;;;20.24;52.15;102329.00;5051601;28;10043;-71
2022/05/05 12:17:43;;;;;;;;;11.00;10.00;;;;;20.25;52.15;102331.66;5050129;28;9993;-71
2022/05/05 12:20:11;;;;;;;;;13.75;13.50;;;;;20.26;52.44;102324.59;5050305;28;9886;-71